Rechercher aéroport 
image banner adimage banner adimage banner ad
image banner ad

5CA6 - San Joaquin Helicopters

Situé à Delano, United States

ICAO - 5CA6, IATA -

Données fournies par Airmate  

Information générale

Coordonnées: N35°47'29" W119°13'54"
Élévation : 335 feet MSL.
Variation magnétique : 15° East
Voir autres Aéroports à California

Données opérationnelles

Special qualification required
Heure actuelle UTC:
Heure actuelle locale:
Météo à : KDLO - Delano Muni ( 5 km )
METAR: KDLO 262355Z AUTO 21003KT 10SM SCT090 BKN120 26/14 A2987 RMK AO2 T02600136 10322 20256
Voir NOTAMs / SUP AIP / TFR affectant cet aéroport [VIEW]
Fréquences de communication: [VIEW]

Pistes:

Coordonnées de l'aéroport

Adresse: Delano United States

Vue satellite de 5CA6